Airfield :
LOGIN :

Register | Disclaimer

   EN    FR    IT 

 










Legend :    VFR   Marginal VFR   IFR   Intensive IFR   Very Intensive IFR
Visi :
Ceiling :
>= 8 km
>= 3000ft
5 to 8 km
1000 to 3000 ft
1500m to 5 km
500 to 1000 ft
800 to 1500m
200 to 500 ft
< 800m
< 200 ft
Symbols :   Thunderstorms  Fog  Heavy snow  Heavy precipitations  Wind > 20 kt
SIGMETs :     Misc.  Thunderstorms  Icing  Turbulence  Mountain Waves  Volcanic Ashes






- Airport Elevation : 325 ft
- IATA code : BES


LFRB - Brest

CURRENT METAR :
  • 040000Z AUTO 26002KT 4100 1300 R25/1400D R07/1600D BR NSC 07/07 Q1025 TEMPO 0500 FG VV///

EXPIRED METARs :
  • 031530Z AUTO 35009KT 310V020 9999 OVC033 17/10 Q1024 TEMPO 34015G25KT
  • 032330Z AUTO 25003KT 2600 0800 R25/1400N R07/1100N BCFG NSC 08/07 Q1025 TEMPO 0500 FG VV///
  • 032300Z AUTO 25002KT 9999 2200 NSC 09/08 Q1025 TEMPO 0500 FG VV///
  • 032230Z AUTO 29002KT CAVOK 09/08 Q1025 TEMPO 0500 FG VV///
  • 032200Z AUTO 31003KT CAVOK 09/08 Q1025 TEMPO BKN012 BECMG 3000 BR

TAF TAF LFRB
Valid from the 04 at 00:00 until the 05 at 06:00 UTC


032300Z 0400/0506 VRB05KT 9999 SCT020
TEMPO 0400/0408 3000 BR BKN012
PROB40
TEMPO 0400/0406 0500 FG VV///
BECMG 0406/0408 33010KT
BECMG 0420/0422 VRB05KT
TEMPO 0422/0506 3000 BR BKN012
ATIS : +33 2 98 32 02 71



MET'MAP, your aeronautical weather chart ! - Copyright ORBIFLY December 2007 - Disclaimer

ORBIFLY MET'MAP TEAM :

Programming & Development : Alexandra Zaïnal
Original concept : Baudouin d'Aumeries
Technical & hardware support : Manuel Goepfert
Assistance : Marc-Olivier Méhu




SOURCES & CREDITS :

   NOAA